Terminal Aerodrome Forecast
Issued by NWS

Home | Current Version | Previous Version | Text Only | Print | Product List | Glossary On
Versions: 1 2 3 4 5 6 7 8 9 10 11 12 13 14 15 16 17 18
000
FTUS43 KLSX 292300
TAFCPS
TAF
KCPS 292320Z 3000/3024 VRB04KT P6SM SKC
     FM301300 16006KT P6SM SCT100
     FM301600 16008KT P6SM VCSH BKN080=

USA.gov is the U.S. government's official web portal to all federal, state and local government web resources and services.